Latest Coastal Weather Observations for Milingimbi

IDD60701

Issued at 4:11 pm CST Thursday 29 September 2016 (issued every 10 minutes, with the page automatically refreshed every 10 minutes)

About coastal observations | Map of coastal stations | Coastal observations for NT | Marine services | Other Formats
Station Details ID: 014404 Name: MILINGIMBI AIRPORT Lat: -12.09 Lon: 134.89 Height: 15.0 m
Data from the previous 72 hours. | See also: Recent months at Milingimbi
Date/Time
CST
Temp
°C
Wind Pressure Rain since
9am
mm
Weather Cloud Vis
km
Sea
Height
m
Swell
Dir  Spd
kts
Gust
kts
hPa Trend Height
m
Period
s
Dir
29/04:00pm 30.5 N 7 11 1007.3 - 0.0 - - - - - - -
29/03:30pm 30.4 N 8 12 1007.3 - 0.0 - - - - - - -
29/03:00pm 31.2 N 7 11 1007.4 - 0.0 - - - - - - -
29/02:30pm 31.5 N 6 10 1007.8 - 0.0 - - - - - - -
29/02:00pm 32.0 N 6 10 1007.9 - 0.0 - - - - - - -
29/01:30pm 31.8 NNE 6 11 1008.4 - 0.0 - - - - - - -
29/01:00pm 32.1 N 4 9 1008.8 - 0.0 - - - - - - -
29/12:30pm 30.5 NNE 6 9 1009.1 - 0.0 - - - - - - -
29/12:00pm 31.2 N 7 11 1009.2 - 0.0 - - - - - - -
29/11:30am 31.4 N 7 12 1009.7 - 0.0 - - - - - - -
29/11:00am 30.2 N 4 8 1010.2 - 0.0 - - - - - - -
29/10:30am 29.3 N 5 8 1010.6 - 0.0 - - - - - - -
29/10:00am 29.9 N 5 8 1010.6 - 0.0 - - - - - - -
29/09:30am 29.7 N 6 11 1010.7 - 0.0 - - - - - - -
29/09:00am 29.2 NNW 4 7 1010.6 - 0.0 - - - - - - -
29/08:30am 28.8 CALM 0 0 1010.5 - 0.0 - - - - - - -
29/08:00am 27.9 SSW 4 5 1010.6 - 0.0 - - - - - - -
29/07:30am 27.4 SSW 2 3 1010.1 - 0.0 - - - - - - -
29/07:00am 25.9 CALM 0 0 1009.4 - 0.0 - - - - - - -
29/06:30am 25.4 CALM 0 0 1009.2 - 0.0 - - - - - - -
29/06:00am 25.1 CALM 0 0 1009.0 - 0.0 - - - - - - -
29/05:30am 25.0 CALM 0 0 1008.9 - 0.0 - - - - - - -
29/05:00am 24.8 CALM 0 0 1008.7 - 0.0 - - - - - - -
29/04:30am 25.0 CALM 0 0 1008.5 - 0.0 - - - - - - -
29/04:00am 25.0 CALM 0 0 1008.6 - 0.0 - - - - - - -
29/03:30am 24.9 CALM 0 2 1008.5 - 0.0 - - - - - - -
29/03:00am 24.8 CALM 0 0 1008.5 - 0.0 - - - - - - -
29/02:30am 24.8 CALM 0 0 1008.8 - 0.0 - - - - - - -
29/02:00am 24.8 CALM 0 0 1008.9 - 0.0 - - - - - - -
29/01:30am 25.2 CALM 0 0 1009.4 - 0.0 - - - - - - -
29/01:00am 25.2 CALM 0 0 1009.5 - 0.0 - - - - - - -
29/12:30am 25.4 CALM 0 0 1009.8 - 0.0 - - - - - - -
29/12:00am 25.8 CALM 0 0 1009.9 - 0.0 - - - - - - -
 
Date/Time
CST
Temp
°C
Wind Pressure Rain since
9am
mm
Weather Cloud Vis
km
Sea
Height
m
Swell
Dir  Spd
kts
Gust
kts
hPa Trend Height
m
Period
s
Dir
28/11:30pm 25.7 N 1 3 1010.3 - 0.0 - - - - - - -
28/11:00pm 25.8 CALM 0 0 1010.3 - 0.0 - - - - - - -
28/10:30pm 26.3 CALM 0 0 1010.2 - 0.0 - - - - - - -
28/10:00pm 26.8 N 1 4 1010.1 - 0.0 - - - - - - -
28/09:30pm 27.1 N 3 5 1010.0 - 0.0 - - - - - - -
28/09:00pm 27.3 N 2 4 1009.9 - 0.0 - - - - - - -
28/08:30pm 27.5 N 3 6 1009.9 - 0.0 - - - - - - -
28/08:00pm 27.7 N 4 8 1009.7 - 0.0 - - - - - - -
28/07:30pm 27.7 N 4 7 1009.4 - 0.0 - - - - - - -
28/07:00pm 27.9 N 3 5 1009.3 - 0.0 - - - - - - -
28/06:30pm 28.4 N 4 7 1009.0 - 0.0 - - - - - - -
28/06:00pm 28.8 NNW 5 7 1008.9 - 0.0 - - - - - - -
28/05:30pm 29.3 N 5 8 1008.8 - 0.0 - - - - - - -
28/05:00pm 29.7 N 6 10 1008.6 - 0.0 - - - - - - -
28/04:30pm 30.0 N 6 9 1008.5 - 0.0 - - - - - - -
28/04:00pm 30.7 NW 8 11 1008.5 - 0.0 - - - - - - -
28/03:30pm 31.1 N 7 12 1008.6 - 0.0 - - - - - - -
28/03:00pm 30.5 N 8 13 1008.8 - 0.0 - - - - - - -
28/02:30pm 30.9 N 8 11 1009.2 - 0.0 - - - - - - -
28/02:00pm 31.2 N 7 13 1009.4 - 0.0 - - - - - - -
28/01:30pm 31.1 N 6 11 1009.7 - 0.0 - - - - - - -
28/01:00pm 31.7 N 7 12 1010.3 - 0.0 - - - - - - -
28/12:30pm 31.1 N 6 11 1010.8 - 0.0 - - - - - - -
28/12:00pm 30.5 N 8 11 1011.2 - 0.0 - - - - - - -
28/11:30am 30.2 N 6 13 1011.5 - 0.0 - - - - - - -
28/11:00am 30.9 N 6 11 1011.8 - 0.0 - - - - - - -
28/10:30am 30.5 NNW 7 11 1011.9 - 0.0 - - - - - - -
28/10:00am 30.1 N 7 11 1012.0 - 0.0 - - - - - - -
28/09:30am 30.0 N 6 10 1011.8 - 0.0 - - - - - - -
28/09:00am 30.1 NE 5 9 1011.5 - 0.0 - - - - - - -
28/08:30am 29.7 ENE 6 9 1011.5 - 0.0 - - - - - - -
28/08:00am 28.6 NE 5 8 1011.3 - 0.0 - - - - - - -
28/07:30am 28.3 NE 4 6 1011.1 - 0.0 - - - - - - -
28/07:00am 25.9 NE 2 4 1010.8 - 0.0 - - - - - - -
28/06:30am 24.7 ENE 1 4 1010.5 - 0.0 - - - - - - -
28/06:00am 24.7 CALM 0 0 1009.9 - 0.0 - - - - - - -
28/05:30am 25.1 CALM 0 0 1009.9 - 0.0 - - - - - - -
28/05:00am 25.0 CALM 0 0 1009.4 - 0.0 - - - - - - -
28/04:30am 25.4 CALM 0 0 1009.4 - 0.0 - - - - - - -
28/04:00am 25.4 CALM 0 0 1009.2 - 0.0 - - - - - - -
28/03:30am 25.4 CALM 0 0 1009.2 - 0.0 - - - - - - -
28/03:00am 25.8 CALM 0 0 1009.2 - 0.0 - - - - - - -
28/02:30am 25.8 CALM 0 0 1009.4 - 0.0 - - - - - - -
28/02:00am 25.5 CALM 0 0 1009.6 - 0.0 - - - - - - -
28/01:30am 25.7 CALM 0 0 1009.7 - 0.0 - - - - - - -
28/01:00am 26.0 CALM 0 0 1010.0 - 0.0 - - - - - - -
28/12:30am 26.3 CALM 0 0 1010.2 - 0.0 - - - - - - -
28/12:00am 26.6 CALM 0 0 1010.2 - 0.0 - - - - - - -
 
Date/Time
CST
Temp
°C
Wind Pressure Rain since
9am
mm
Weather Cloud Vis
km
Sea
Height
m
Swell
Dir  Spd
kts
Gust
kts
hPa Trend Height
m
Period
s
Dir
27/11:30pm 26.9 CALM 0 0 1010.6 - 0.0 - - - - - - -
27/11:00pm 27.3 CALM 0 0 1010.8 - 0.0 - - - - - - -
27/10:30pm 27.7 NE 3 5 1010.9 - 0.0 - - - - - - -
27/10:00pm 27.7 N 3 5 1010.5 - 0.0 - - - - - - -
27/09:30pm 27.9 NNE 4 8 1010.4 - 0.0 - - - - - - -
27/09:00pm 28.0 N 4 6 1010.0 - 0.0 - - - - - - -
27/08:30pm 28.2 N 4 6 1009.9 - 0.0 - - - - - - -
27/08:00pm 28.3 N 5 8 1009.4 - 0.0 - - - - - - -
27/07:30pm 28.3 N 5 10 1009.3 - 0.0 - - - - - - -
27/07:00pm 28.4 NNE 5 9 1009.1 - 0.0 - - - - - - -
27/06:30pm 28.7 N 5 9 1009.0 - 0.0 - - - - - - -
27/06:00pm 29.1 N 6 11 1008.7 - 0.0 - - - - - - -
27/05:30pm 29.5 N 6 11 1008.5 - 0.0 - - - - - - -
27/05:00pm 29.7 N 8 14 1008.4 - 0.0 - - - - - - -
27/04:30pm 30.5 N 8 14 1008.4 - 0.0 - - - - - - -
27/04:00pm 30.5 N 9 16 1008.4 - 0.0 - - - - - - -
27/03:30pm 31.0 N 8 14 1008.7 - 0.0 - - - - - - -
27/03:00pm 31.1 N 9 16 1008.6 - 0.0 - - - - - - -
27/02:30pm 32.3 NNW 9 13 1009.0 - 0.0 - - - - - - -
27/02:00pm 31.5 N 9 14 1009.3 - 0.0 - - - - - - -
27/01:30pm 31.8 N 9 15 1009.6 - 0.0 - - - - - - -
27/01:00pm 32.4 NNE 9 12 1009.9 - 0.0 - - - - - - -
27/12:30pm 33.3 NE 8 15 1010.2 - 0.0 - - - - - - -
27/12:00pm 33.6 ENE 8 13 1010.7 - 0.0 - - - - - - -
27/11:30am 33.4 ENE 7 11 1011.4 - 0.0 - - - - - - -
27/11:00am 33.7 ESE 5 8 1011.6 - 0.0 - - - - - - -
27/10:30am 32.6 ESE 6 8 1011.9 - 0.0 - - - - - - -
27/10:00am 31.8 ESE 5 7 1012.0 - 0.0 - - - - - - -
27/09:30am 30.5 ESE 5 8 1011.9 - 0.0 - - - - - - -
27/09:00am 30.1 SE 5 7 1011.8 - 0.0 - - - - - - -
27/08:30am 29.3 ESE 6 9 1011.9 - 0.0 - - - - - - -
27/08:00am 29.1 SE 6 9 1011.9 - 0.0 - - - - - - -
27/07:30am 27.5 SSE 5 6 1011.7 - 0.0 - - - - - - -
27/07:00am 26.1 SSE 4 5 1011.5 - 0.0 - - - - - - -
27/06:30am 25.3 ESE 3 5 1010.9 - 0.0 - - - - - - -
27/06:00am 25.4 SSE 4 5 1010.4 - 0.0 - - - - - - -
27/05:30am 25.5 S 3 5 1010.1 - 0.0 - - - - - - -
27/05:00am 25.9 S 3 3 1010.0 - 0.0 - - - - - - -
27/04:30am 26.0 CALM 0 0 1009.7 - 0.0 - - - - - - -
27/04:00am 25.8 SSW 3 4 1009.5 - 0.0 - - - - - - -
27/03:30am 25.9 SSW 1 4 1009.4 - 0.0 - - - - - - -
27/03:00am 26.0 CALM 0 0 1009.0 - 0.0 - - - - - - -
27/02:30am 26.0 CALM 0 0 1009.3 - 0.0 - - - - - - -
27/02:00am 26.0 CALM 0 0 1009.5 - 0.0 - - - - - - -
27/01:30am 26.1 CALM 0 0 1009.9 - 0.0 - - - - - - -
27/01:00am 26.3 CALM 0 3 1010.3 - 0.0 - - - - - - -
27/12:30am 26.4 CALM 0 0 1010.5 - 0.0 - - - - - - -
27/12:00am 26.4 CALM 0 0 1010.6 - 0.0 - - - - - - -
 
Date/Time
CST
Temp
°C
Wind Pressure Rain since
9am
mm
Weather Cloud Vis
km
Sea
Height
m
Swell
Dir  Spd
kts
Gust
kts
hPa Trend Height
m
Period
s
Dir
26/11:30pm 26.6 CALM 0 0 1010.9 - 0.0 - - - - - - -
26/11:00pm 26.9 CALM 0 0 1011.0 - 0.0 - - - - - - -
26/10:30pm 26.9 CALM 0 0 1011.0 - 0.0 - - - - - - -
26/10:00pm 27.3 CALM 0 0 1010.9 - 0.0 - - - - - - -
26/09:30pm 27.7 NE 2 4 1010.9 - 0.0 - - - - - - -
26/09:00pm 27.7 NNE 3 5 1010.6 - 0.0 - - - - - - -
26/08:30pm 27.9 NE 3 5 1010.5 - 0.0 - - - - - - -
26/08:00pm 28.1 NE 3 5 1010.1 - 0.0 - - - - - - -
26/07:30pm 28.4 NE 4 7 1010.0 - 0.0 - - - - - - -
26/07:00pm 28.5 NE 4 7 1009.9 - 0.0 - - - - - - -
26/06:30pm 28.8 NE 4 7 1009.2 - 0.0 - - - - - - -
26/06:00pm 29.1 N 6 10 1008.8 - 0.0 - - - - - - -
26/05:30pm 29.5 N 7 11 1008.3 - 0.0 - - - - - - -
26/05:00pm 30.2 N 7 11 1008.1 - 0.0 - - - - - - -
26/04:30pm 30.6 N 7 11 1008.0 - 0.0 - - - - - - -

Other Formats:

Comma delimited format used in spreadsheet applications
http://www.bom.gov.au/fwo/IDD60701/IDD60701.94140.axf

JavaScript Object Notation format (JSON) in row-major order
http://www.bom.gov.au/fwo/IDD60701/IDD60701.94140.json